Time;durP1;ratioP1;P1;durP2;ratioP2;P2;SDS_P1;SDS_P2;PMS_P1;PMS_P2;Temp;Humidity;BMP_temperature;BMP_pressure;BME280_temperature;BME280_humidity;BME280_pressure;Samples;Min_cycle;Max_cycle;Signal;HPM_P1;HPM_P2
2021/03/13 00:07:07;;;;;;;;;;;7.70;99.90;;;;;;6232742;23;19920;-86
2021/03/13 00:12:58;;;;;;;;;;;7.50;99.90;;;;;;6246493;23;19948;-82
2021/03/13 00:24:42;;;;;;;;;;;7.10;99.90;;;;;;6254364;23;19923;-84
2021/03/13 00:27:08;;;;;;;;;;;7.10;99.90;;;;;;6244346;23;20269;-84
2021/03/13 00:29:38;;;;;;;;;;;7.00;99.90;;;;;;6270907;23;19906;-82
2021/03/13 00:32:04;;;;;;;;;;;7.00;99.90;;;;;;6270576;23;19914;-83
2021/03/13 00:34:30;;;;;;;;;;;7.00;99.90;;;;;;6243616;23;19900;-82
2021/03/13 00:36:55;;;;;;;;;;;7.00;99.90;;;;;;6243679;23;19907;-82
2021/03/13 00:39:21;;;;;;;;;;;7.00;99.90;;;;;;6271096;22;19923;-83
2021/03/13 00:41:46;;;;;;;;;;;7.00;99.90;;;;;;6244132;23;19956;-83
2021/03/13 00:44:12;;;;;;;;;;;7.00;99.90;;;;;;6243239;23;19904;-83
2021/03/13 00:46:40;;;;;;;;;;;7.00;99.90;;;;;;6271539;23;19911;-82
2021/03/13 00:49:05;;;;;;;;;;;7.00;99.90;;;;;;6243565;23;19951;-83
2021/03/13 00:51:31;;;;;;;;;;;7.00;99.90;;;;;;6262268;23;19899;-84
2021/03/13 00:53:56;;;;;;;;;;;7.00;99.90;;;;;;6256627;23;19904;-83
2021/03/13 00:56:22;;;;;;;;;;;7.00;99.90;;;;;;6230781;23;19961;-84
2021/03/13 00:58:48;;;;;;;;;;;7.00;99.90;;;;;;6231178;23;19903;-84
2021/03/13 01:01:13;;;;;;;;;;;7.00;99.90;;;;;;6257625;23;19910;-84
2021/03/13 01:03:39;;;;;;;;;;;7.00;99.90;;;;;;6231999;23;19906;-84
2021/03/13 01:06:04;;;;;;;;;;;7.00;99.90;;;;;;6230241;23;19964;-84
2021/03/13 01:08:30;;;;;;;;;;;6.90;99.90;;;;;;6231892;23;19900;-84
2021/03/13 01:10:55;;;;;;;;;;;6.90;99.90;;;;;;6230817;23;19900;-83
2021/03/13 01:13:21;;;;;;;;;;;6.90;99.90;;;;;;6229753;23;19923;-84
2021/03/13 01:15:47;;;;;;;;;;;6.90;99.90;;;;;;6229850;23;20298;-84
2021/03/13 01:18:13;;;;;;;;;;;6.90;99.90;;;;;;6255566;23;19900;-84
2021/03/13 01:20:39;;;;;;;;;;;6.90;99.90;;;;;;6255812;23;20000;-83
2021/03/13 01:23:04;;;;;;;;;;;6.90;99.90;;;;;;6231497;23;19935;-85
2021/03/13 01:25:30;;;;;;;;;;;6.80;99.90;;;;;;6261006;23;19900;-85
2021/03/13 01:27:55;;;;;;;;;;;6.80;99.90;;;;;;6259634;23;19915;-85
2021/03/13 01:30:24;;;;;;;;;;;6.80;99.90;;;;;;6259325;23;20487;-85
2021/03/13 01:32:50;;;;;;;;;;;6.70;99.90;;;;;;6232776;23;19903;-85
2021/03/13 01:35:15;;;;;;;;;;;6.70;99.90;;;;;;6259219;23;19911;-84
2021/03/13 01:37:41;;;;;;;;;;;6.70;99.90;;;;;;6259089;23;19927;-85
2021/03/13 01:40:10;;;;;;;;;;;6.70;99.90;;;;;;6232166;23;19908;-84
2021/03/13 01:42:36;;;;;;;;;;;6.60;99.90;;;;;;6256802;23;19919;-84
2021/03/13 01:45:06;;;;;;;;;;;6.60;99.90;;;;;;6257615;23;19904;-84
2021/03/13 01:47:34;;;;;;;;;;;6.60;99.90;;;;;;6258497;23;19908;-85
2021/03/13 01:50:02;;;;;;;;;;;6.60;99.90;;;;;;6232020;23;19978;-84
2021/03/13 01:52:27;;;;;;;;;;;6.60;99.90;;;;;;6231628;23;19982;-85
2021/03/13 01:54:53;;;;;;;;;;;6.60;99.90;;;;;;6257424;23;19907;-84
2021/03/13 01:57:19;;;;;;;;;;;6.60;99.90;;;;;;6231184;23;19934;-84
2021/03/13 01:59:45;;;;;;;;;;;6.60;99.90;;;;;;6227630;23;19919;-84
2021/03/13 02:02:11;;;;;;;;;;;6.60;99.90;;;;;;6228969;23;19907;-84
2021/03/13 02:04:37;;;;;;;;;;;6.50;99.90;;;;;;6257289;23;19903;-85
2021/03/13 02:07:29;;;;;;;;;;;6.50;99.90;;;;;;6257305;23;19918;-84
2021/03/13 02:10:13;;;;;;;;;;;6.50;99.90;;;;;;6206444;23;19910;-85
2021/03/13 02:12:56;;;;;;;;;;;6.50;99.90;;;;;;6257394;23;19910;-84
2021/03/13 02:15:26;;;;;;;;;;;6.50;99.90;;;;;;6255004;23;19926;-84
2021/03/13 02:17:58;;;;;;;;;;;6.50;99.90;;;;;;6229876;23;20002;-83
2021/03/13 02:20:23;;;;;;;;;;;6.50;99.90;;;;;;6229586;23;19907;-84
2021/03/13 02:22:52;;;;;;;;;;;6.50;99.90;;;;;;6256847;23;20344;-83
2021/03/13 02:25:35;;;;;;;;;;;6.50;99.90;;;;;;6257907;23;19920;-85
2021/03/13 02:28:04;;;;;;;;;;;6.50;99.90;;;;;;6230559;23;19910;-83
2021/03/13 02:30:31;;;;;;;;;;;6.50;99.90;;;;;;6232487;23;19955;-83
2021/03/13 02:32:56;;;;;;;;;;;6.50;99.90;;;;;;6231041;23;19918;-83
2021/03/13 02:35:25;;;;;;;;;;;6.50;99.90;;;;;;6230899;23;19933;-83
2021/03/13 02:37:54;;;;;;;;;;;6.50;99.90;;;;;;6231529;23;19904;-83
2021/03/13 02:40:23;;;;;;;;;;;6.50;99.90;;;;;;6259543;23;19994;-82
2021/03/13 02:42:55;;;;;;;;;;;6.50;99.90;;;;;;6230140;23;19904;-83
2021/03/13 02:45:24;;;;;;;;;;;6.50;99.90;;;;;;6231250;23;19926;-83
2021/03/13 02:47:51;;;;;;;;;;;6.50;99.90;;;;;;6259890;23;20008;-83
2021/03/13 02:50:16;;;;;;;;;;;6.50;99.90;;;;;;6230361;23;20250;-83
2021/03/13 02:52:42;;;;;;;;;;;6.50;99.90;;;;;;6231969;23;19938;-83
2021/03/13 02:55:11;;;;;;;;;;;6.50;99.90;;;;;;6259089;23;19918;-82
2021/03/13 02:57:38;;;;;;;;;;;6.50;99.90;;;;;;6257267;23;19912;-82
2021/03/13 03:00:04;;;;;;;;;;;6.50;99.90;;;;;;6258146;23;19904;-82
2021/03/13 03:02:30;;;;;;;;;;;6.60;99.90;;;;;;6232616;23;19927;-82
2021/03/13 03:04:56;;;;;;;;;;;6.60;99.90;;;;;;6229659;23;20089;-81
2021/03/13 03:07:26;;;;;;;;;;;6.60;99.90;;;;;;6229207;23;19947;-82
2021/03/13 03:09:52;;;;;;;;;;;6.60;99.90;;;;;;6257218;23;19926;-82
2021/03/13 03:12:18;;;;;;;;;;;6.60;99.90;;;;;;6229065;23;19904;-81
2021/03/13 03:14:45;;;;;;;;;;;6.60;99.90;;;;;;6227794;23;19904;-81
2021/03/13 03:17:11;;;;;;;;;;;6.60;99.90;;;;;;6256108;23;19935;-82
2021/03/13 03:19:37;;;;;;;;;;;6.60;99.90;;;;;;6228064;23;20326;-81
2021/03/13 03:22:03;;;;;;;;;;;6.60;99.90;;;;;;6254986;23;19907;-81
2021/03/13 03:24:29;;;;;;;;;;;6.60;99.90;;;;;;6254008;23;20026;-82
2021/03/13 03:26:55;;;;;;;;;;;6.70;99.90;;;;;;6255736;23;20327;-81
2021/03/13 03:29:21;;;;;;;;;;;6.70;99.90;;;;;;6254039;23;19958;-81
2021/03/13 03:31:46;;;;;;;;;;;6.70;99.90;;;;;;6256540;23;19912;-82
2021/03/13 03:34:14;;;;;;;;;;;6.70;99.90;;;;;;6255047;23;20002;-81
2021/03/13 03:36:40;;;;;;;;;;;6.80;99.90;;;;;;6253982;23;19904;-81
2021/03/13 03:39:06;;;;;;;;;;;6.80;99.90;;;;;;6253886;23;19934;-81
2021/03/13 03:41:32;;;;;;;;;;;6.90;99.90;;;;;;6252886;23;20504;-81
2021/03/13 03:44:01;;;;;;;;;;;6.90;99.90;;;;;;6226388;23;19904;-81
2021/03/13 03:46:27;;;;;;;;;;;6.90;99.90;;;;;;6227293;23;19907;-81
2021/03/13 03:48:52;;;;;;;;;;;7.00;99.90;;;;;;6254857;23;19950;-81
2021/03/13 03:51:18;;;;;;;;;;;7.00;99.90;;;;;;6253430;23;19982;-81
2021/03/13 03:53:45;;;;;;;;;;;7.00;99.90;;;;;;6252477;23;19907;-81
2021/03/13 03:56:11;;;;;;;;;;;7.00;99.90;;;;;;6226296;23;19903;-81
2021/03/13 03:58:46;;;;;;;;;;;7.00;99.90;;;;;;6253692;23;19953;-81
2021/03/13 04:01:12;;;;;;;;;;;7.00;99.90;;;;;;6253662;23;19908;-81
2021/03/13 04:03:47;;;;;;;;;;;7.00;99.90;;;;;;6233193;23;19919;-80
2021/03/13 04:06:13;;;;;;;;;;;7.00;99.90;;;;;;6254600;23;19918;-80
2021/03/13 04:08:40;;;;;;;;;;;7.00;99.90;;;;;;6252495;23;19904;-80
2021/03/13 04:11:05;;;;;;;;;;;7.00;99.90;;;;;;6225999;23;19986;-79
2021/03/13 04:13:31;;;;;;;;;;;7.00;99.90;;;;;;6251055;23;19911;-79
2021/03/13 04:15:57;;;;;;;;;;;7.00;99.90;;;;;;6223283;23;19904;-79
2021/03/13 04:18:22;;;;;;;;;;;7.00;99.90;;;;;;6224545;23;19904;-79
2021/03/13 04:20:49;;;;;;;;;;;7.00;99.90;;;;;;6250538;23;19907;-79
2021/03/13 04:23:16;;;;;;;;;;;7.00;99.90;;;;;;6251279;23;19904;-79
2021/03/13 04:25:42;;;;;;;;;;;7.00;99.90;;;;;;6248470;23;20315;-79
2021/03/13 04:28:08;;;;;;;;;;;7.00;99.90;;;;;;6250397;23;19914;-79
2021/03/13 04:30:34;;;;;;;;;;;7.00;99.90;;;;;;6249227;23;19915;-78
2021/03/13 04:33:00;;;;;;;;;;;7.00;99.90;;;;;;6250629;23;19904;-79
2021/03/13 04:35:27;;;;;;;;;;;7.00;99.90;;;;;;6248675;23;19954;-79
2021/03/13 04:37:53;;;;;;;;;;;7.00;99.90;;;;;;6250664;23;19910;-79
2021/03/13 04:40:20;;;;;;;;;;;7.00;99.90;;;;;;6249668;23;19907;-79
2021/03/13 04:42:46;;;;;;;;;;;7.00;99.90;;;;;;6221480;23;19903;-79
2021/03/13 04:45:12;;;;;;;;;;;7.00;99.90;;;;;;6221725;23;19910;-79
2021/03/13 04:47:40;;;;;;;;;;;7.00;99.90;;;;;;6248183;23;19904;-79
2021/03/13 04:50:06;;;;;;;;;;;7.10;99.90;;;;;;6222816;23;19914;-79
2021/03/13 04:52:32;;;;;;;;;;;7.10;99.90;;;;;;6221770;23;19907;-78
2021/03/13 04:54:57;;;;;;;;;;;7.10;99.90;;;;;;6248678;23;19910;-79
2021/03/13 04:57:23;;;;;;;;;;;7.10;99.90;;;;;;6249912;23;20339;-79
2021/03/13 04:59:49;;;;;;;;;;;7.10;99.90;;;;;;6249443;23;19953;-79
2021/03/13 05:02:15;;;;;;;;;;;7.20;99.90;;;;;;6222725;23;19908;-79
2021/03/13 05:04:40;;;;;;;;;;;7.20;99.90;;;;;;6247759;23;20409;-78
2021/03/13 05:07:06;;;;;;;;;;;7.20;99.90;;;;;;6221969;23;20230;-80
2021/03/13 05:09:31;;;;;;;;;;;7.20;99.90;;;;;;6249522;23;19950;-79
2021/03/13 05:11:57;;;;;;;;;;;7.30;99.90;;;;;;6248746;23;20349;-79
2021/03/13 05:14:22;;;;;;;;;;;7.30;99.90;;;;;;6248220;23;19935;-79
2021/03/13 05:16:48;;;;;;;;;;;7.30;99.90;;;;;;6222437;23;19953;-79
2021/03/13 05:19:13;;;;;;;;;;;7.30;99.90;;;;;;6221500;23;19904;-79
2021/03/13 05:21:39;;;;;;;;;;;7.30;99.90;;;;;;6248733;23;19907;-78
2021/03/13 05:24:04;;;;;;;;;;;7.40;99.90;;;;;;6247591;23;19927;-78
2021/03/13 05:26:30;;;;;;;;;;;7.40;99.90;;;;;;6222246;23;19980;-79
2021/03/13 05:28:55;;;;;;;;;;;7.40;99.90;;;;;;6222278;23;19911;-78
2021/03/13 05:31:22;;;;;;;;;;;7.40;99.90;;;;;;6248962;23;19979;-79
2021/03/13 05:33:48;;;;;;;;;;;7.50;99.90;;;;;;6248815;23;19966;-78
2021/03/13 05:36:13;;;;;;;;;;;7.50;99.90;;;;;;6220583;23;19904;-78
2021/03/13 05:38:39;;;;;;;;;;;7.50;99.90;;;;;;6221670;23;20273;-78
2021/03/13 05:41:04;;;;;;;;;;;7.50;99.90;;;;;;6247461;23;19915;-79
2021/03/13 05:43:31;;;;;;;;;;;7.50;99.90;;;;;;6248146;23;19911;-79
2021/03/13 05:45:57;;;;;;;;;;;7.50;99.90;;;;;;6248196;23;19930;-78
2021/03/13 05:48:23;;;;;;;;;;;7.50;99.90;;;;;;6246727;23;19946;-78
2021/03/13 05:50:48;;;;;;;;;;;7.50;99.90;;;;;;6221541;23;19904;-78
2021/03/13 05:53:15;;;;;;;;;;;7.50;99.90;;;;;;6248229;23;19907;-77
2021/03/13 05:55:41;;;;;;;;;;;7.50;99.90;;;;;;6247328;23;19911;-79
2021/03/13 05:58:07;;;;;;;;;;;7.50;99.90;;;;;;6246707;23;19911;-78
2021/03/13 06:00:33;;;;;;;;;;;7.50;99.90;;;;;;6249892;23;19957;-78
2021/03/13 06:02:59;;;;;;;;;;;7.50;99.90;;;;;;6248218;23;19903;-78
2021/03/13 06:05:25;;;;;;;;;;;7.50;99.90;;;;;;6247094;23;19986;-79
2021/03/13 06:07:53;;;;;;;;;;;7.40;99.90;;;;;;6248644;23;19938;-79
2021/03/13 06:10:18;;;;;;;;;;;7.40;99.90;;;;;;6250216;23;19903;-79
2021/03/13 06:12:44;;;;;;;;;;;7.40;99.90;;;;;;6246788;23;20400;-79
2021/03/13 06:15:09;;;;;;;;;;;7.40;99.90;;;;;;6247471;23;19914;-79
2021/03/13 06:18:11;;;;;;;;;;;7.40;99.90;;;;;;6223358;23;19914;-79
2021/03/13 06:20:38;;;;;;;;;;;7.40;99.90;;;;;;6099058;23;19917;-79
2021/03/13 06:23:03;;;;;;;;;;;7.40;99.90;;;;;;6221185;23;20384;-78
2021/03/13 06:25:29;;;;;;;;;;;7.30;99.90;;;;;;6249605;23;19927;-80
2021/03/13 06:28:02;;;;;;;;;;;7.40;99.90;;;;;;6250019;23;19953;-80
2021/03/13 06:30:35;;;;;;;;;;;7.40;99.90;;;;;;6249575;23;19934;-80
2021/03/13 06:33:17;;;;;;;;;;;7.40;99.90;;;;;;6249772;23;19957;-80
2021/03/13 06:35:43;;;;;;;;;;;7.50;99.90;;;;;;6250890;23;19904;-80
2021/03/13 06:38:13;;;;;;;;;;;7.50;99.90;;;;;;6224948;23;19983;-80
2021/03/13 06:40:38;;;;;;;;;;;7.60;99.90;;;;;;6250229;23;20323;-80
2021/03/13 06:43:22;;;;;;;;;;;7.60;99.90;;;;;;6251399;23;19904;-81
2021/03/13 06:46:07;;;;;;;;;;;7.70;99.90;;;;;;6251474;23;19910;-81
2021/03/13 06:48:34;;;;;;;;;;;7.80;99.90;;;;;;6224605;23;19904;-82
2021/03/13 06:51:12;;;;;;;;;;;7.90;99.90;;;;;;6251988;23;19908;-80
2021/03/13 06:53:38;;;;;;;;;;;7.90;99.90;;;;;;6225348;23;19986;-81
2021/03/13 06:56:08;;;;;;;;;;;8.00;99.90;;;;;;6253043;23;19930;-82
2021/03/13 06:58:33;;;;;;;;;;;8.00;99.90;;;;;;6201529;23;19904;-83
2021/03/13 07:01:02;;;;;;;;;;;8.00;99.90;;;;;;6227992;23;19933;-82
2021/03/13 07:03:28;;;;;;;;;;;7.90;99.90;;;;;;6227308;23;19951;-83
2021/03/13 07:05:53;;;;;;;;;;;7.80;99.90;;;;;;6253485;23;20350;-84
2021/03/13 07:08:29;;;;;;;;;;;7.70;99.90;;;;;;6255744;23;19935;-83
2021/03/13 07:11:04;;;;;;;;;;;7.70;99.90;;;;;;6258138;23;19904;-84
2021/03/13 07:13:30;;;;;;;;;;;7.50;99.90;;;;;;6258942;23;19915;-84
2021/03/13 07:15:56;;;;;;;;;;;7.30;99.90;;;;;;6259130;23;19907;-84
2021/03/13 07:18:21;;;;;;;;;;;7.00;99.90;;;;;;6262342;23;19915;-83
2021/03/13 07:20:47;;;;;;;;;;;6.80;99.90;;;;;;6263259;23;19973;-83
2021/03/13 07:23:15;;;;;;;;;;;6.60;99.90;;;;;;6256954;23;19903;-84
2021/03/13 07:25:41;;;;;;;;;;;6.40;99.90;;;;;;6229421;23;19903;-83
2021/03/13 07:28:08;;;;;;;;;;;6.30;99.90;;;;;;6229450;23;19926;-83
2021/03/13 07:30:35;;;;;;;;;;;6.30;99.90;;;;;;6255309;23;19958;-83
2021/03/13 07:33:08;;;;;;;;;;;6.30;99.90;;;;;;6227717;23;19910;-84
2021/03/13 07:35:35;;;;;;;;;;;6.20;99.90;;;;;;6225681;23;19903;-83
2021/03/13 07:38:03;;;;;;;;;;;6.30;99.90;;;;;;6255071;23;19991;-84
2021/03/13 07:40:30;;;;;;;;;;;6.30;99.90;;;;;;6226094;23;19987;-83
2021/03/13 07:42:55;;;;;;;;;;;6.40;99.90;;;;;;6254355;23;19908;-82
2021/03/13 07:45:21;;;;;;;;;;;6.40;99.90;;;;;;6252671;23;19919;-81
2021/03/13 07:47:47;;;;;;;;;;;6.50;99.90;;;;;;6227195;23;19918;-81
2021/03/13 07:50:13;;;;;;;;;;;6.60;99.90;;;;;;6254377;23;20319;-83
2021/03/13 07:52:40;;;;;;;;;;;6.70;99.90;;;;;;6253586;23;19903;-81
2021/03/13 07:55:13;;;;;;;;;;;6.70;99.90;;;;;;6251853;23;19907;-82
2021/03/13 07:57:41;;;;;;;;;;;6.80;99.90;;;;;;6225907;23;20346;-82
2021/03/13 08:00:08;;;;;;;;;;;6.90;99.90;;;;;;6226722;23;19919;-79
2021/03/13 08:02:35;;;;;;;;;;;6.90;99.90;;;;;;6254024;23;19908;-83
2021/03/13 08:05:03;;;;;;;;;;;7.00;99.90;;;;;;6226637;23;19912;-81
2021/03/13 08:07:47;;;;;;;;;;;7.00;99.90;;;;;;6227659;23;19907;-81
2021/03/13 08:10:33;;;;;;;;;;;7.10;99.90;;;;;;6226604;23;19904;-81
2021/03/13 08:12:58;;;;;;;;;;;7.20;99.90;;;;;;6252363;23;19904;-82
2021/03/13 08:15:30;;;;;;;;;;;7.30;99.90;;;;;;6226279;23;20223;-82
2021/03/13 08:17:55;;;;;;;;;;;7.40;99.90;;;;;;6254069;23;19912;-81
2021/03/13 08:20:34;;;;;;;;;;;7.40;99.90;;;;;;6226330;23;19908;-80
2021/03/13 08:23:12;;;;;;;;;;;7.50;99.90;;;;;;6254817;23;19908;-82
2021/03/13 08:25:53;;;;;;;;;;;7.50;99.90;;;;;;6252960;23;19971;-81
2021/03/13 08:28:37;;;;;;;;;;;7.60;99.90;;;;;;6226124;23;19903;-82
2021/03/13 08:31:21;;;;;;;;;;;7.60;99.90;;;;;;6224432;23;19966;-81
2021/03/13 08:33:47;;;;;;;;;;;7.60;99.90;;;;;;6227427;23;19914;-81
2021/03/13 08:36:20;;;;;;;;;;;7.70;99.90;;;;;;6251783;23;19935;-82
2021/03/13 08:38:52;;;;;;;;;;;7.70;99.90;;;;;;6226690;23;19908;-83
2021/03/13 08:41:37;;;;;;;;;;;7.70;99.90;;;;;;6226815;23;20247;-82
2021/03/13 08:44:02;;;;;;;;;;;7.80;99.90;;;;;;6252106;23;20010;-82
2021/03/13 08:46:47;;;;;;;;;;;7.80;99.90;;;;;;6251883;23;19911;-82
2021/03/13 08:49:35;;;;;;;;;;;7.80;99.90;;;;;;6225476;23;19910;-82
2021/03/13 08:52:09;;;;;;;;;;;7.80;99.90;;;;;;6227587;23;19908;-81
2021/03/13 08:54:34;;;;;;;;;;;7.80;99.90;;;;;;6223953;23;19910;-82
2021/03/13 08:57:00;;;;;;;;;;;7.90;99.90;;;;;;6251246;23;19935;-82
2021/03/13 08:59:25;;;;;;;;;;;8.00;99.90;;;;;;6224857;23;19907;-82
2021/03/13 09:02:02;;;;;;;;;;;8.00;99.90;;;;;;6223750;23;19934;-80
2021/03/13 09:04:29;;;;;;;;;;;8.00;99.90;;;;;;6251197;23;19982;-80
2021/03/13 09:06:54;;;;;;;;;;;8.10;99.90;;;;;;6253478;23;20010;-80
2021/03/13 09:09:21;;;;;;;;;;;8.20;99.90;;;;;;6226476;23;19910;-80
2021/03/13 09:11:56;;;;;;;;;;;8.30;99.90;;;;;;6252741;23;19903;-80
2021/03/13 09:14:22;;;;;;;;;;;8.40;99.90;;;;;;6252274;23;19904;-80
2021/03/13 09:16:47;;;;;;;;;;;8.50;99.90;;;;;;6251479;23;19910;-81
2021/03/13 09:19:14;;;;;;;;;;;8.60;99.90;;;;;;6251190;23;19910;-83
2021/03/13 09:21:43;;;;;;;;;;;8.80;99.90;;;;;;6250775;23;20285;-80
2021/03/13 09:24:10;;;;;;;;;;;9.10;99.90;;;;;;6248403;23;19911;-80
2021/03/13 09:26:36;;;;;;;;;;;9.30;99.90;;;;;;6252668;23;20247;-81
2021/03/13 09:29:02;;;;;;;;;;;9.30;99.90;;;;;;6249485;23;19908;-82
2021/03/13 09:31:28;;;;;;;;;;;9.30;99.90;;;;;;6252395;23;20318;-84
2021/03/13 09:33:53;;;;;;;;;;;9.40;99.90;;;;;;6224271;23;19911;-81
2021/03/13 09:36:26;;;;;;;;;;;9.70;99.90;;;;;;6251114;23;19903;-80
2021/03/13 09:38:55;;;;;;;;;;;9.70;99.90;;;;;;6250705;23;19903;-82
2021/03/13 09:41:21;;;;;;;;;;;10.30;99.90;;;;;;6251036;23;20249;-81
2021/03/13 09:43:47;;;;;;;;;;;10.50;99.90;;;;;;6251742;23;19982;-81
2021/03/13 09:46:16;;;;;;;;;;;10.30;99.90;;;;;;6249775;23;19915;-81
2021/03/13 09:48:41;;;;;;;;;;;10.10;99.90;;;;;;6250330;23;19904;-80
2021/03/13 09:51:07;;;;;;;;;;;10.00;99.90;;;;;;6250057;23;19911;-80
2021/03/13 09:53:32;;;;;;;;;;;10.00;99.90;;;;;;6252074;23;19903;-81
2021/03/13 09:55:58;;;;;;;;;;;10.70;99.90;;;;;;6249756;23;19904;-81
2021/03/13 09:58:24;;;;;;;;;;;11.80;99.90;;;;;;6250341;23;20243;-80
2021/03/13 10:00:49;;;;;;;;;;;13.60;99.90;;;;;;6225162;23;19921;-81
2021/03/13 10:03:16;;;;;;;;;;;15.10;99.90;;;;;;6251010;23;19913;-81
2021/03/13 10:05:42;;;;;;;;;;;15.10;99.90;;;;;;6249693;23;19935;-81
2021/03/13 10:08:13;;;;;;;;;;;14.70;99.90;;;;;;6219466;23;20165;-80
2021/03/13 10:10:42;;;;;;;;;;;14.10;99.90;;;;;;6220937;23;19908;-80
2021/03/13 10:13:08;;;;;;;;;;;13.70;99.90;;;;;;6192936;23;19951;-81
2021/03/13 10:15:35;;;;;;;;;;;13.80;99.90;;;;;;6219616;23;19904;-80
2021/03/13 10:18:08;;;;;;;;;;;13.80;99.90;;;;;;6218917;23;19904;-80
2021/03/13 10:20:34;;;;;;;;;;;13.20;99.90;;;;;;6194398;23;20246;-79
2021/03/13 10:23:07;;;;;;;;;;;12.70;99.90;;;;;;6221726;23;19999;-79
2021/03/13 10:25:33;;;;;;;;;;;12.30;99.90;;;;;;6219971;23;19926;-80
2021/03/13 10:28:09;;;;;;;;;;;11.90;99.90;;;;;;6221165;23;20326;-79
2021/03/13 10:30:36;;;;;;;;;;;11.50;99.90;;;;;;6220557;23;19936;-80
2021/03/13 10:33:01;;;;;;;;;;;11.30;99.90;;;;;;6220787;23;19904;-79
2021/03/13 10:35:28;;;;;;;;;;;11.10;99.90;;;;;;6220366;23;19938;-79
2021/03/13 10:38:00;;;;;;;;;;;11.00;99.90;;;;;;6221443;23;19948;-80
2021/03/13 10:40:30;;;;;;;;;;;11.50;99.90;;;;;;6221164;23;19908;-80
2021/03/13 10:43:09;;;;;;;;;;;13.50;99.90;;;;;;6194425;23;19904;-80
2021/03/13 10:45:35;;;;;;;;;;;14.70;99.90;;;;;;6222395;23;20000;-80
2021/03/13 10:48:04;;;;;;;;;;;14.50;99.90;;;;;;6222842;23;20264;-79
2021/03/13 10:50:30;;;;;;;;;;;14.00;99.90;;;;;;6196008;23;19939;-80
2021/03/13 10:52:56;;;;;;;;;;;13.60;99.90;;;;;;6195844;23;19911;-80
2021/03/13 10:55:36;;;;;;;;;;;13.40;99.90;;;;;;6195232;23;20327;-80
2021/03/13 10:58:02;;;;;;;;;;;13.30;99.90;;;;;;6222246;23;20481;-80
2021/03/13 11:00:28;;;;;;;;;;;14.40;99.90;;;;;;6221766;23;19908;-81
2021/03/13 11:02:53;;;;;;;;;;;14.30;99.90;;;;;;6222476;23;19904;-79
2021/03/13 11:05:19;;;;;;;;;;;14.10;99.90;;;;;;6221174;23;19923;-80
2021/03/13 11:07:44;;;;;;;;;;;13.60;99.90;;;;;;6223097;23;19904;-80
2021/03/13 11:10:10;;;;;;;;;;;13.10;99.90;;;;;;6195495;23;19908;-80
2021/03/13 11:12:35;;;;;;;;;;;12.70;99.90;;;;;;6222328;23;19911;-80
2021/03/13 11:15:01;;;;;;;;;;;12.50;99.90;;;;;;6195876;23;19904;-79
2021/03/13 11:17:26;;;;;;;;;;;12.20;99.90;;;;;;6196061;23;19959;-80
2021/03/13 11:19:52;;;;;;;;;;;13.00;99.90;;;;;;6196585;23;19938;-80
2021/03/13 11:22:18;;;;;;;;;;;15.60;99.90;;;;;;6194217;23;20318;-82
2021/03/13 11:24:43;;;;;;;;;;;17.00;99.90;;;;;;6221228;23;19908;-82
2021/03/13 11:27:09;;;;;;;;;;;16.70;99.90;;;;;;6221552;23;19983;-81
2021/03/13 11:29:34;;;;;;;;;;;15.70;99.90;;;;;;6223075;23;19903;-80
2021/03/13 11:32:00;;;;;;;;;;;16.10;99.90;;;;;;6222921;23;19946;-81
2021/03/13 11:34:25;;;;;;;;;;;16.20;99.90;;;;;;6223701;23;20331;-80
2021/03/13 11:36:53;;;;;;;;;;;15.70;99.90;;;;;;6224787;23;19904;-80
2021/03/13 11:39:19;;;;;;;;;;;15.20;99.90;;;;;;6224639;23;19910;-79
2021/03/13 11:41:44;;;;;;;;;;;15.00;99.90;;;;;;6197151;23;19946;-79
2021/03/13 11:44:11;;;;;;;;;;;14.90;99.90;;;;;;6222514;23;19904;-79
2021/03/13 11:46:37;;;;;;;;;;;16.30;99.90;;;;;;6197826;23;19980;-79
2021/03/13 11:49:05;;;;;;;;;;;16.10;99.90;;;;;;6224809;23;19904;-79
2021/03/13 11:51:30;;;;;;;;;;;15.30;99.90;;;;;;6197774;23;19950;-80
2021/03/13 11:53:56;;;;;;;;;;;15.20;99.90;;;;;;6222741;23;19932;-80
2021/03/13 11:56:21;;;;;;;;;;;16.00;99.90;;;;;;6222865;23;19931;-79
2021/03/13 11:58:47;;;;;;;;;;;16.70;99.90;;;;;;6222393;23;19915;-79
2021/03/13 12:01:22;;;;;;;;;;;;;;;;;;;;;
2021/03/13 12:03:48;;;;;;;;;;;15.80;99.90;;;;;;6217198;23;19951;-79
2021/03/13 12:06:14;;;;;;;;;;;15.00;99.90;;;;;;6217379;23;19931;-78
2021/03/13 12:08:40;;;;;;;;;;;14.20;99.90;;;;;;6217375;23;19911;-78
2021/03/13 12:11:05;;;;;;;;;;;13.30;99.90;;;;;;6216193;23;20285;-78
2021/03/13 12:13:31;;;;;;;;;;;12.50;99.90;;;;;;6214943;23;19984;-79
2021/03/13 12:15:56;;;;;;;;;;;11.80;99.90;;;;;;6214932;23;19950;-78
2021/03/13 12:18:22;;;;;;;;;;;11.20;99.90;;;;;;6191625;23;19935;-78
2021/03/13 12:20:47;;;;;;;;;;;10.90;99.90;;;;;;6217318;23;19962;-78
2021/03/13 12:23:13;;;;;;;;;;;10.70;99.90;;;;;;6216270;23;19915;-78
2021/03/13 12:25:38;;;;;;;;;;;10.50;99.90;;;;;;6189422;23;19914;-78
2021/03/13 12:28:04;;;;;;;;;;;10.50;99.90;;;;;;6189327;23;19938;-78
2021/03/13 12:30:30;;;;;;;;;;;10.40;99.90;;;;;;6215890;23;19912;-78
2021/03/13 12:32:56;;;;;;;;;;;10.30;99.90;;;;;;6214981;23;20251;-78
2021/03/13 12:35:22;;;;;;;;;;;10.30;99.90;;;;;;6189212;23;19908;-78
2021/03/13 12:37:47;;;;;;;;;;;11.00;99.90;;;;;;6215125;23;19911;-78
2021/03/13 12:40:13;;;;;;;;;;;11.60;99.90;;;;;;6216966;23;19908;-78
2021/03/13 12:42:39;;;;;;;;;;;12.60;99.90;;;;;;6217398;23;19904;-79
2021/03/13 12:45:06;;;;;;;;;;;13.90;99.90;;;;;;6216550;23;19904;-79
2021/03/13 12:47:32;;;;;;;;;;;14.40;99.90;;;;;;6190633;23;19911;-78
2021/03/13 12:49:57;;;;;;;;;;;14.00;99.90;;;;;;6216419;23;20243;-78
2021/03/13 12:52:23;;;;;;;;;;;13.70;99.90;;;;;;6189927;23;19912;-78
2021/03/13 12:54:50;;;;;;;;;;;13.40;99.90;;;;;;6215920;23;19904;-79
2021/03/13 12:57:15;;;;;;;;;;;13.00;99.90;;;;;;6215039;23;20383;-78
2021/03/13 12:59:41;;;;;;;;;;;12.60;99.90;;;;;;6216457;23;19919;-78
2021/03/13 13:02:06;;;;;;;;;;;12.20;99.90;;;;;;6213314;23;20039;-78
2021/03/13 13:04:32;;;;;;;;;;;11.90;99.90;;;;;;6187926;23;19904;-78
2021/03/13 13:06:58;;;;;;;;;;;11.80;99.90;;;;;;6214303;23;20290;-79
2021/03/13 13:09:23;;;;;;;;;;;12.90;99.90;;;;;;6217826;23;19919;-79
2021/03/13 13:11:49;;;;;;;;;;;14.20;99.90;;;;;;6219054;23;19908;-79
2021/03/13 13:14:14;;;;;;;;;;;15.30;99.90;;;;;;6218028;23;19946;-79
2021/03/13 13:16:40;;;;;;;;;;;15.40;99.90;;;;;;6218953;23;20406;-79
2021/03/13 13:19:05;;;;;;;;;;;15.80;99.90;;;;;;6217622;23;19911;-79
2021/03/13 13:21:31;;;;;;;;;;;16.00;99.90;;;;;;6218403;23;20235;-79
2021/03/13 13:23:56;;;;;;;;;;;15.60;99.90;;;;;;6215093;23;19912;-78
2021/03/13 13:26:22;;;;;;;;;;;15.10;99.90;;;;;;6215087;23;19911;-79
2021/03/13 13:28:47;;;;;;;;;;;14.50;99.90;;;;;;6188684;23;19911;-78
2021/03/13 13:31:12;;;;;;;;;;;13.90;99.90;;;;;;6215400;23;20238;-78
2021/03/13 13:33:38;;;;;;;;;;;13.30;99.90;;;;;;6190224;23;19954;-78
2021/03/13 13:36:04;;;;;;;;;;;12.70;99.90;;;;;;6187398;23;19911;-78
2021/03/13 13:38:30;;;;;;;;;;;12.10;99.90;;;;;;6215146;23;20357;-78
2021/03/13 13:40:56;;;;;;;;;;;11.60;99.90;;;;;;6216210;23;19912;-79
2021/03/13 13:43:22;;;;;;;;;;;11.00;99.90;;;;;;6215769;23;20030;-79
2021/03/13 13:45:47;;;;;;;;;;;10.30;99.90;;;;;;6216644;23;19915;-80
2021/03/13 13:48:13;;;;;;;;;;;9.80;99.90;;;;;;6217938;23;19914;-80
2021/03/13 13:50:39;;;;;;;;;;;9.40;99.90;;;;;;6218251;23;19910;-80
2021/03/13 13:53:05;;;;;;;;;;;9.20;99.90;;;;;;6216926;23;19904;-80
2021/03/13 13:55:30;;;;;;;;;;;9.60;99.90;;;;;;6187595;23;19911;-78
2021/03/13 13:57:56;;;;;;;;;;;10.40;99.90;;;;;;6189233;23;19904;-78
2021/03/13 14:00:23;;;;;;;;;;;11.40;99.90;;;;;;6215285;23;20009;-78
2021/03/13 14:02:50;;;;;;;;;;;11.70;99.90;;;;;;6216017;23;19912;-78
2021/03/13 14:05:16;;;;;;;;;;;11.50;99.90;;;;;;6215105;23;19980;-78
2021/03/13 14:07:41;;;;;;;;;;;11.40;99.90;;;;;;6214993;23;19903;-78
2021/03/13 14:10:07;;;;;;;;;;;11.90;99.90;;;;;;6188014;23;19919;-78
2021/03/13 14:12:33;;;;;;;;;;;12.60;99.90;;;;;;6216990;23;19908;-78
2021/03/13 14:14:59;;;;;;;;;;;13.20;99.90;;;;;;6213172;23;19925;-78
2021/03/13 14:17:24;;;;;;;;;;;13.70;99.90;;;;;;6215859;23;19966;-78
2021/03/13 14:19:50;;;;;;;;;;;13.60;99.90;;;;;;6217186;23;19911;-78
2021/03/13 14:22:15;;;;;;;;;;;13.60;99.90;;;;;;6218513;23;19908;-78
2021/03/13 14:24:41;;;;;;;;;;;13.90;99.90;;;;;;6217696;23;19922;-78
2021/03/13 14:27:07;;;;;;;;;;;14.20;99.90;;;;;;6216983;23;19962;-78
2021/03/13 14:29:33;;;;;;;;;;;14.30;99.90;;;;;;6191377;23;19977;-79
2021/03/13 14:31:59;;;;;;;;;;;14.40;99.90;;;;;;6218549;23;20337;-79
2021/03/13 14:34:25;;;;;;;;;;;14.20;99.90;;;;;;6216732;23;19908;-78
2021/03/13 14:36:50;;;;;;;;;;;14.20;99.90;;;;;;6218910;23;19904;-78
2021/03/13 14:39:16;;;;;;;;;;;14.00;99.90;;;;;;6192687;23;19926;-78
2021/03/13 14:41:43;;;;;;;;;;;13.90;99.90;;;;;;6218093;23;20232;-78
2021/03/13 14:44:08;;;;;;;;;;;13.80;99.90;;;;;;6217855;23;20282;-77
2021/03/13 14:46:34;;;;;;;;;;;13.70;99.90;;;;;;6219620;23;19911;-79